createdAt,value
2018-11-12T00:01:13.820Z,79.91
2018-11-12T00:03:41.564Z,81.34
2018-11-12T00:06:09.268Z,79.95
2018-11-12T00:08:37.004Z,80.09
2018-11-12T00:11:05.096Z,80.09
2018-11-12T00:13:32.780Z,80.37
2018-11-12T00:16:00.469Z,79.21
2018-11-12T00:18:28.158Z,80.18
2018-11-12T00:20:55.880Z,79.33
2018-11-12T00:23:24.237Z,79.09
2018-11-12T00:25:51.996Z,78.51
2018-11-12T00:28:19.717Z,78.88
2018-11-12T00:30:47.438Z,80.55
2018-11-12T00:33:15.142Z,80.68
2018-11-12T00:35:42.805Z,79.92
2018-11-12T00:38:10.525Z,78.47
2018-11-12T00:40:38.268Z,78.51
2018-11-12T00:43:05.976Z,79.18
2018-11-12T00:45:33.632Z,81.02
2018-11-12T00:48:01.277Z,82.00
2018-11-12T00:50:28.940Z,82.71
2018-11-12T00:52:56.600Z,83.00
2018-11-12T00:55:24.290Z,85.14
2018-11-12T00:57:51.972Z,82.78
2018-11-12T01:00:20.052Z,81.84
2018-11-12T01:02:48.978Z,81.58
2018-11-12T01:05:17.462Z,80.82
2018-11-12T01:07:45.763Z,82.85
2018-11-12T01:10:14.408Z,82.34
2018-11-12T01:12:42.714Z,83.24
2018-11-12T01:15:12.006Z,80.84
2018-11-12T01:17:40.308Z,83.55
2018-11-12T01:20:09.400Z,81.46
2018-11-12T01:22:37.062Z,83.17
2018-11-12T01:25:05.273Z,82.11
2018-11-12T01:27:32.950Z,83.97
2018-11-12T01:30:00.633Z,85.20
2018-11-12T01:32:28.524Z,84.54
2018-11-12T01:34:56.145Z,83.34
2018-11-12T01:37:23.825Z,84.93
2018-11-12T01:39:51.544Z,83.21
2018-11-12T01:42:19.273Z,81.12
2018-11-12T01:44:47.004Z,81.21
2018-11-12T01:47:14.745Z,80.27
2018-11-12T01:49:42.433Z,79.82
2018-11-12T01:52:10.148Z,81.14
2018-11-12T01:54:37.861Z,82.00
2018-11-12T01:57:05.586Z,81.75
2018-11-12T01:59:33.216Z,84.07
2018-11-12T02:02:00.882Z,83.36
2018-11-12T02:04:28.562Z,83.35
2018-11-12T02:06:56.250Z,81.97
2018-11-12T02:09:23.908Z,81.10
2018-11-12T02:11:51.633Z,81.85
2018-11-12T02:14:19.369Z,81.30
2018-11-12T02:16:47.111Z,82.30
2018-11-12T02:19:14.794Z,84.42
2018-11-12T02:21:42.521Z,85.21
2018-11-12T02:24:10.280Z,82.42
2018-11-12T02:26:37.998Z,81.49
2018-11-12T02:29:05.897Z,84.91
2018-11-12T02:31:33.554Z,85.96
2018-11-12T02:34:01.265Z,84.84
2018-11-12T02:36:29.018Z,84.85
2018-11-12T02:38:56.756Z,82.27
2018-11-12T02:41:24.472Z,82.69
2018-11-12T02:43:52.208Z,84.55
2018-11-12T02:46:19.877Z,82.72
2018-11-12T02:48:47.657Z,82.14
2018-11-12T02:51:15.409Z,81.27
2018-11-12T02:53:43.127Z,80.74
2018-11-12T02:56:12.784Z,80.73
2018-11-12T02:58:40.829Z,81.77
2018-11-12T03:01:08.892Z,80.75
2018-11-12T03:03:36.565Z,80.27
2018-11-12T03:06:04.293Z,80.16
2018-11-12T03:08:31.993Z,81.03
2018-11-12T03:10:59.766Z,80.47
2018-11-12T03:13:27.466Z,80.42
2018-11-12T03:15:55.201Z,80.41
2018-11-12T03:18:22.949Z,80.72
2018-11-12T03:20:50.665Z,81.56
2018-11-12T03:23:18.431Z,81.96
2018-11-12T03:25:46.176Z,85.25
2018-11-12T03:28:13.787Z,81.19
2018-11-12T03:30:41.540Z,80.84
2018-11-12T03:33:09.250Z,80.78
2018-11-12T03:35:36.956Z,80.42
2018-11-12T03:38:04.720Z,80.82
2018-11-12T03:40:32.484Z,83.21
2018-11-12T03:43:00.117Z,84.24
2018-11-12T03:45:27.788Z,86.26
2018-11-12T03:47:55.525Z,84.54
2018-11-12T03:50:24.265Z,82.84
2018-11-12T03:52:51.964Z,82.04
2018-11-12T03:55:20.723Z,81.60
2018-11-12T03:57:48.419Z,81.68
2018-11-12T04:00:20.238Z,81.71
2018-11-12T04:02:47.993Z,81.38
2018-11-12T04:05:15.817Z,81.60
2018-11-12T04:07:43.608Z,81.80
2018-11-12T04:10:18.669Z,83.28
2018-11-12T04:12:46.400Z,83.02
2018-11-12T04:15:15.392Z,82.66
2018-11-12T04:17:43.089Z,86.17
2018-11-12T04:20:12.564Z,85.76
2018-11-12T04:22:41.060Z,86.54
2018-11-12T04:25:10.568Z,85.89
2018-11-12T04:27:38.292Z,87.00
2018-11-12T04:30:10.935Z,87.42
2018-11-12T04:32:38.668Z,86.81
2018-11-12T04:35:07.040Z,85.63
2018-11-12T04:37:34.723Z,86.01
2018-11-12T04:40:02.549Z,84.69
2018-11-12T04:42:30.246Z,84.65
2018-11-12T04:44:57.973Z,84.41
2018-11-12T04:47:25.641Z,84.53
2018-11-12T04:49:53.666Z,82.93
2018-11-12T04:52:21.393Z,83.07
2018-11-12T04:54:49.085Z,84.98
2018-11-12T04:57:16.819Z,84.37
2018-11-12T04:59:44.493Z,82.98
2018-11-12T05:02:12.289Z,84.49
2018-11-12T05:04:39.990Z,82.99
2018-11-12T05:07:07.726Z,82.49
2018-11-12T05:09:35.366Z,83.08
2018-11-12T05:12:03.209Z,83.56
2018-11-12T05:14:30.903Z,84.35
2018-11-12T05:16:58.720Z,85.72
2018-11-12T05:19:26.423Z,86.88
2018-11-12T05:21:54.554Z,86.47
2018-11-12T05:24:22.245Z,84.63
2018-11-12T05:26:49.996Z,86.57
2018-11-12T05:29:17.652Z,85.49
2018-11-12T05:31:45.389Z,84.08
2018-11-12T05:34:13.144Z,84.43
2018-11-12T05:36:40.773Z,85.60
2018-11-12T05:39:11.332Z,85.58
2018-11-12T05:41:39.146Z,86.97
2018-11-12T05:44:07.216Z,86.27
2018-11-12T05:46:34.902Z,87.41
2018-11-12T05:49:02.913Z,84.47
2018-11-12T05:51:30.667Z,85.82
2018-11-12T05:53:58.425Z,83.44
2018-11-12T05:56:27.295Z,83.53
2018-11-12T05:58:55.063Z,83.81
2018-11-12T06:01:22.832Z,82.77
2018-11-12T06:03:50.909Z,82.73
2018-11-12T06:06:18.673Z,82.91
2018-11-12T06:08:46.737Z,82.41
2018-11-12T06:11:14.630Z,82.30
2018-11-12T06:13:42.392Z,82.11
2018-11-12T06:16:10.341Z,82.86
2018-11-12T06:18:38.373Z,82.52
2018-11-12T06:21:06.068Z,81.44
2018-11-12T06:23:33.741Z,81.81
2018-11-12T06:26:01.534Z,83.24
2018-11-12T06:28:29.208Z,81.93
2018-11-12T06:30:57.103Z,84.35
2018-11-12T06:33:25.045Z,85.57
2018-11-12T06:35:52.717Z,84.02
2018-11-12T06:38:21.132Z,84.96
2018-11-12T06:40:48.844Z,84.36
2018-11-12T06:43:17.094Z,83.09
2018-11-12T06:45:44.811Z,82.84
2018-11-12T06:48:12.748Z,82.07
2018-11-12T06:50:41.358Z,83.06
2018-11-12T06:53:09.235Z,82.53
2018-11-12T06:55:36.846Z,83.27
2018-11-12T06:58:04.985Z,82.34
2018-11-12T07:00:33.992Z,83.79
2018-11-12T07:03:02.306Z,82.55
2018-11-12T07:05:30.873Z,83.27
2018-11-12T07:07:58.868Z,82.03
2018-11-12T07:10:28.166Z,83.48
2018-11-12T07:12:57.145Z,83.84
2018-11-12T07:15:26.217Z,84.41
2018-11-12T07:17:54.432Z,83.90
2018-11-12T07:20:24.612Z,84.84
2018-11-12T07:22:52.725Z,83.71
2018-11-12T07:25:22.840Z,84.04
2018-11-12T07:27:50.605Z,86.19
2018-11-12T07:30:20.971Z,85.22
2018-11-12T07:32:50.047Z,85.36
2018-11-12T07:35:18.437Z,85.81
2018-11-12T07:37:48.349Z,84.76
2018-11-12T07:40:16.709Z,84.08
2018-11-12T07:42:44.485Z,85.67
2018-11-12T07:45:13.825Z,85.59
2018-11-12T07:47:42.506Z,85.77
2018-11-12T07:50:12.297Z,84.25
2018-11-12T07:52:43.324Z,84.45
2018-11-12T07:55:13.573Z,84.51
2018-11-12T07:57:41.776Z,83.66
2018-11-12T08:00:13.233Z,82.70
2018-11-12T08:02:42.145Z,84.10
2018-11-12T08:05:10.501Z,83.87
2018-11-12T08:07:38.474Z,83.00
2018-11-12T08:10:08.601Z,82.72
2018-11-12T08:12:36.382Z,82.41
2018-11-12T08:15:05.622Z,82.30
2018-11-12T08:17:33.444Z,81.83
2018-11-12T08:20:01.258Z,81.43
2018-11-12T08:22:29.018Z,81.53
2018-11-12T08:24:56.689Z,80.77
2018-11-12T08:27:24.568Z,81.28
2018-11-12T08:29:52.219Z,82.44
2018-11-12T08:32:19.889Z,82.11
2018-11-12T08:34:49.932Z,81.98
2018-11-12T08:37:17.905Z,82.56
2018-11-12T08:39:45.744Z,82.96
2018-11-12T08:42:13.245Z,82.83
2018-11-12T08:44:40.969Z,82.83
2018-11-12T08:47:08.680Z,82.59
2018-11-12T08:49:36.526Z,81.87
2018-11-12T08:52:04.514Z,83.03
2018-11-12T08:54:32.308Z,82.94
2018-11-12T08:57:04.381Z,82.78
2018-11-12T08:59:32.186Z,81.86
2018-11-12T09:01:59.960Z,82.16
2018-11-12T09:04:27.629Z,81.51
2018-11-12T09:06:55.372Z,81.75
2018-11-12T09:09:23.076Z,82.24
2018-11-12T09:11:50.813Z,81.39
2018-11-12T09:14:18.528Z,81.26
2018-11-12T09:16:46.219Z,80.73
2018-11-12T09:19:14.100Z,81.02
2018-11-12T09:21:41.809Z,81.18
2018-11-12T09:24:09.632Z,80.80
2018-11-12T09:26:37.372Z,81.06
2018-11-12T09:29:05.157Z,80.68
2018-11-12T09:31:32.968Z,80.41
2018-11-12T09:34:01.068Z,81.22
2018-11-12T09:36:28.837Z,80.21
2018-11-12T09:41:24.328Z,80.70
2018-11-12T09:43:51.904Z,80.81
2018-11-12T09:46:19.586Z,80.55
2018-11-12T09:48:47.666Z,80.30
2018-11-12T09:51:15.308Z,81.01
2018-11-12T09:53:43.144Z,80.86
2018-11-12T09:56:10.857Z,80.37
2018-11-12T09:58:38.521Z,80.69
2018-11-12T10:01:06.519Z,79.43
2018-11-12T10:03:35.160Z,79.67
2018-11-12T10:06:02.801Z,79.39
2018-11-12T10:08:35.337Z,79.95
2018-11-12T10:11:04.437Z,79.16
2018-11-12T10:13:31.790Z,79.69
2018-11-12T10:15:59.997Z,79.84
2018-11-12T10:18:25.585Z,78.83
2018-11-12T10:20:53.304Z,78.86
2018-11-12T10:23:21.592Z,78.75
2018-11-12T10:25:49.317Z,78.66
2018-11-12T10:28:18.225Z,79.20
2018-11-12T10:30:45.895Z,77.31
2018-11-12T10:33:13.617Z,78.71
2018-11-12T10:35:41.317Z,78.38
2018-11-12T10:38:09.414Z,78.87
2018-11-12T10:40:37.197Z,78.16
2018-11-12T10:43:07.650Z,77.40
2018-11-12T10:45:35.420Z,78.21
2018-11-12T10:48:03.318Z,78.25
2018-11-12T10:50:30.894Z,77.38
2018-11-12T10:52:58.620Z,78.36
2018-11-12T10:55:26.455Z,77.41
2018-11-12T10:57:54.265Z,77.19
2018-11-12T11:00:30.857Z,76.26
2018-11-12T11:03:07.960Z,75.64
2018-11-12T11:05:36.708Z,76.05
2018-11-12T11:08:04.687Z,76.03
2018-11-12T11:10:32.331Z,76.51
2018-11-12T11:13:01.225Z,76.51
2018-11-12T11:15:29.562Z,76.65
2018-11-12T11:17:57.265Z,77.21
2018-11-12T11:20:25.065Z,77.11
2018-11-12T11:22:54.006Z,76.60
2018-11-12T11:25:21.717Z,76.93
2018-11-12T11:27:49.472Z,74.97
2018-11-12T11:30:17.549Z,75.54
2018-11-12T11:32:45.468Z,76.05
2018-11-12T11:35:14.410Z,76.06
2018-11-12T11:37:42.150Z,75.98
2018-11-12T11:40:14.202Z,75.30
2018-11-12T11:42:42.161Z,75.43
2018-11-12T11:45:11.261Z,75.78
2018-11-12T11:47:39.810Z,75.46
2018-11-12T11:50:09.723Z,75.15
2018-11-12T11:52:37.392Z,73.36
2018-11-12T11:55:08.143Z,74.51
2018-11-12T11:57:35.992Z,74.69
2018-11-12T12:00:08.778Z,75.56
2018-11-12T12:02:36.436Z,75.62
2018-11-12T12:05:06.021Z,75.20
2018-11-12T12:07:34.057Z,75.85
2018-11-12T12:10:01.840Z,77.32
2018-11-12T12:12:29.568Z,76.55
2018-11-12T12:14:57.236Z,77.80
2018-11-12T12:17:24.929Z,77.65
2018-11-12T12:19:52.764Z,76.77
2018-11-12T12:22:20.467Z,77.34
2018-11-12T12:24:48.309Z,78.08
2018-11-12T12:27:15.928Z,78.01
2018-11-12T12:29:43.805Z,77.64
2018-11-12T12:32:11.537Z,77.35
2018-11-12T12:34:39.313Z,77.80
2018-11-12T12:37:06.964Z,77.28
2018-11-12T12:39:34.658Z,77.42
2018-11-12T12:42:02.306Z,78.02
2018-11-12T12:44:31.670Z,77.77
2018-11-12T12:46:59.293Z,77.95
2018-11-12T12:49:27.155Z,77.95
2018-11-12T12:51:54.906Z,77.14
2018-11-12T12:54:22.651Z,77.51
2018-11-12T12:56:50.336Z,76.62
2018-11-12T12:59:18.053Z,77.01
2018-11-12T13:01:45.785Z,76.84
2018-11-12T13:04:13.436Z,75.69
2018-11-12T13:06:41.236Z,76.49
2018-11-12T13:09:09.576Z,76.04
2018-11-12T13:11:37.604Z,76.30
2018-11-12T13:14:06.063Z,76.04
2018-11-12T13:16:33.548Z,75.99
2018-11-12T13:19:01.257Z,75.90
2018-11-12T13:21:29.067Z,75.96
2018-11-12T13:23:56.663Z,74.85
2018-11-12T13:26:24.318Z,75.28
2018-11-12T13:28:52.050Z,74.30
2018-11-12T13:31:19.820Z,74.80
2018-11-12T13:33:47.545Z,73.79
2018-11-12T13:36:15.233Z,74.08
2018-11-12T13:38:42.907Z,74.43
2018-11-12T13:41:10.586Z,73.94
2018-11-12T13:43:38.266Z,74.37
2018-11-12T13:46:05.926Z,72.83
2018-11-12T13:48:33.613Z,72.23
2018-11-12T13:51:01.369Z,68.88
2018-11-12T13:53:29.120Z,69.64
2018-11-12T13:55:56.850Z,69.12
2018-11-12T13:58:24.549Z,71.09
2018-11-12T14:00:52.296Z,71.00
2018-11-12T14:03:20.065Z,68.84
2018-11-12T14:05:47.806Z,68.62
2018-11-12T14:08:15.650Z,67.86
2018-11-12T14:10:43.429Z,68.57
2018-11-12T14:13:11.117Z,69.51
2018-11-12T14:15:38.778Z,68.96
2018-11-12T14:18:06.592Z,69.24
2018-11-12T14:20:34.490Z,72.42
2018-11-12T14:23:02.050Z,70.61
2018-11-12T14:25:30.381Z,70.11
2018-11-12T14:27:58.266Z,71.07
2018-11-12T14:30:27.409Z,72.57
2018-11-12T14:32:55.149Z,71.02
2018-11-12T14:35:22.945Z,72.75
2018-11-12T14:37:50.663Z,73.22
2018-11-12T14:40:19.918Z,72.56
2018-11-12T14:42:47.657Z,72.75
2018-11-12T14:45:17.793Z,72.79
2018-11-12T14:47:45.876Z,73.20
2018-11-12T14:50:13.668Z,73.37
2018-11-12T14:52:41.349Z,73.15
2018-11-12T14:55:10.847Z,73.95
2018-11-12T14:57:38.600Z,73.61
2018-11-12T15:00:12.862Z,71.98
2018-11-12T15:02:40.679Z,73.93
2018-11-12T15:05:09.226Z,73.78
2018-11-12T15:07:36.966Z,73.42
2018-11-12T15:10:07.106Z,74.42
2018-11-12T15:12:34.893Z,74.08
2018-11-12T15:15:02.979Z,74.20
2018-11-12T15:17:30.712Z,73.46
2018-11-12T15:19:58.968Z,74.27
2018-11-12T15:22:28.108Z,73.81
2018-11-12T15:24:55.817Z,74.01
2018-11-12T15:27:23.448Z,73.87
2018-11-12T15:29:51.126Z,73.63
2018-11-12T15:32:18.834Z,72.99
2018-11-12T15:34:46.597Z,73.90
2018-11-12T15:37:14.467Z,73.64
2018-11-12T15:39:42.804Z,72.94
2018-11-12T15:42:10.478Z,72.42
2018-11-12T15:44:38.240Z,73.76
2018-11-12T15:47:05.921Z,74.57
2018-11-12T15:49:33.749Z,73.09
2018-11-12T15:52:01.543Z,73.81
2018-11-12T15:54:29.257Z,74.17
2018-11-12T15:56:56.963Z,73.37
2018-11-12T15:59:24.671Z,73.19
2018-11-12T16:01:52.360Z,72.83
2018-11-12T16:04:20.117Z,72.45
2018-11-12T16:06:47.896Z,71.67
2018-11-12T16:09:16.016Z,72.87
2018-11-12T16:11:44.372Z,72.56
2018-11-12T16:14:12.045Z,71.79
2018-11-12T16:16:39.833Z,72.28
2018-11-12T16:19:08.589Z,71.87
2018-11-12T16:21:36.289Z,72.10
2018-11-12T16:24:04.344Z,72.01
2018-11-12T16:26:32.152Z,72.38
2018-11-12T16:28:59.880Z,72.25
2018-11-12T16:31:27.783Z,72.14
2018-11-12T16:33:55.581Z,72.26
2018-11-12T16:36:23.426Z,72.38
2018-11-12T16:38:51.774Z,73.34
2018-11-12T16:41:19.496Z,73.51
2018-11-12T16:43:47.158Z,72.60
2018-11-12T16:46:14.916Z,72.99
2018-11-12T16:48:45.219Z,72.42
2018-11-12T16:51:12.996Z,73.13
2018-11-12T16:53:40.717Z,73.65
2018-11-12T16:56:08.473Z,73.80
2018-11-12T16:58:36.209Z,74.25
2018-11-12T17:01:04.230Z,74.40
2018-11-12T17:03:31.909Z,74.40
2018-11-12T17:06:00.321Z,74.25
2018-11-12T17:08:29.217Z,74.92
2018-11-12T17:10:58.892Z,75.42
2018-11-12T17:13:26.686Z,75.01
2018-11-12T17:15:54.679Z,75.23
2018-11-12T17:18:23.133Z,75.99
2018-11-12T17:20:51.364Z,75.82
2018-11-12T17:23:19.544Z,77.86
2018-11-12T17:25:47.879Z,80.02
2018-11-12T17:28:16.593Z,78.63
2018-11-12T17:30:45.443Z,79.71
2018-11-12T17:33:13.469Z,79.67
2018-11-12T17:35:41.233Z,79.20
2018-11-12T17:38:08.912Z,79.96
2018-11-12T17:40:36.660Z,81.07
2018-11-12T17:43:04.888Z,81.52
2018-11-12T17:45:32.620Z,80.43
2018-11-12T17:48:00.391Z,79.40
2018-11-12T17:50:28.134Z,79.39
2018-11-12T17:52:55.884Z,80.73
2018-11-12T17:55:23.576Z,79.51
2018-11-12T17:57:51.317Z,80.83
2018-11-12T18:00:22.877Z,80.35
2018-11-12T18:02:50.641Z,80.85
2018-11-12T18:05:18.514Z,78.33
2018-11-12T18:07:46.558Z,80.59
2018-11-12T18:10:15.157Z,79.62
2018-11-12T18:12:43.224Z,79.32
2018-11-12T18:15:13.668Z,79.15
2018-11-12T18:17:41.696Z,80.11
2018-11-12T18:20:13.440Z,79.23
2018-11-12T18:22:41.381Z,78.64
2018-11-12T18:25:10.217Z,79.37
2018-11-12T18:27:38.223Z,82.70
2018-11-12T18:30:11.542Z,79.75
2018-11-12T18:32:39.260Z,80.11
2018-11-12T18:35:07.311Z,79.64
2018-11-12T18:37:35.360Z,79.20
2018-11-12T18:40:03.656Z,78.50
2018-11-12T18:42:31.489Z,78.50
2018-11-12T18:44:59.285Z,80.10
2018-11-12T18:47:27.213Z,79.70
2018-11-12T18:49:55.229Z,80.33
2018-11-12T18:52:22.945Z,79.59
2018-11-12T18:54:50.597Z,79.12
2018-11-12T18:57:18.633Z,80.17
2018-11-12T18:59:46.297Z,80.14
2018-11-12T19:02:14.012Z,79.13
2018-11-12T19:04:41.733Z,81.75
2018-11-12T19:07:10.151Z,79.04
2018-11-12T19:09:37.929Z,79.87
2018-11-12T19:12:05.716Z,79.60
2018-11-12T19:14:33.447Z,80.57
2018-11-12T19:17:01.169Z,79.85
2018-11-12T19:19:28.860Z,79.50
2018-11-12T19:21:56.546Z,79.17
2018-11-12T19:24:24.221Z,80.52
2018-11-12T19:26:51.982Z,79.54
2018-11-12T19:29:19.754Z,79.47
2018-11-12T19:31:47.457Z,79.33
2018-11-12T19:34:15.460Z,79.86
2018-11-12T19:36:43.720Z,79.57
2018-11-12T19:39:11.426Z,79.44
2018-11-12T19:41:39.319Z,79.02
2018-11-12T19:44:07.084Z,79.46
2018-11-12T19:46:34.782Z,80.02
2018-11-12T19:49:02.482Z,79.74
2018-11-12T19:51:30.260Z,79.28
2018-11-12T19:53:57.845Z,79.26
2018-11-12T19:56:25.866Z,79.62
2018-11-12T19:58:53.775Z,82.45
2018-11-12T20:01:25.104Z,80.30
2018-11-12T20:03:52.882Z,82.80
2018-11-12T20:06:20.593Z,81.63
2018-11-12T20:08:48.341Z,80.26
2018-11-12T20:11:16.616Z,80.02
2018-11-12T20:13:44.312Z,81.23
2018-11-12T20:16:12.004Z,82.98
2018-11-12T20:18:39.797Z,83.95
2018-11-12T20:21:07.434Z,81.66
2018-11-12T20:23:35.218Z,81.36
2018-11-12T20:26:03.011Z,81.38
2018-11-12T20:28:31.101Z,82.15
2018-11-12T20:30:58.856Z,81.07
2018-11-12T20:33:26.541Z,80.58
2018-11-12T20:35:54.230Z,80.73
2018-11-12T20:38:22.321Z,81.87
2018-11-12T20:40:50.047Z,80.05
2018-11-12T20:43:17.746Z,80.82
2018-11-12T20:45:45.393Z,80.96
2018-11-12T20:48:13.255Z,82.54
2018-11-12T20:50:40.905Z,81.22
2018-11-12T20:53:08.655Z,80.73
2018-11-12T20:55:36.392Z,80.44
2018-11-12T20:58:04.275Z,80.54
2018-11-12T21:00:32.034Z,80.14
2018-11-12T21:03:00.132Z,80.06
2018-11-12T21:05:29.085Z,82.06
2018-11-12T21:07:57.022Z,81.56
2018-11-12T21:10:24.751Z,80.10
2018-11-12T21:12:52.796Z,80.34
2018-11-12T21:15:22.069Z,80.24
2018-11-12T21:17:50.230Z,80.77
2018-11-12T21:20:20.157Z,80.32
2018-11-12T21:22:47.816Z,80.12
2018-11-12T21:25:16.917Z,80.16
2018-11-12T21:27:44.684Z,79.97
2018-11-12T21:30:15.277Z,80.04
2018-11-12T21:32:43.299Z,80.18
2018-11-12T21:35:11.374Z,81.78
2018-11-12T21:37:39.093Z,80.32
2018-11-12T21:40:11.352Z,79.94
2018-11-12T21:42:39.192Z,79.76
2018-11-12T21:45:09.097Z,79.95
2018-11-12T21:47:37.157Z,80.02
2018-11-12T21:50:07.577Z,80.53
2018-11-12T21:52:35.261Z,80.59
2018-11-12T21:55:03.444Z,81.79
2018-11-12T21:57:31.445Z,81.31
2018-11-12T21:59:59.155Z,81.15
2018-11-12T22:02:26.874Z,80.67
2018-11-12T22:04:54.618Z,81.24
2018-11-12T22:07:23.499Z,80.62
2018-11-12T22:09:51.344Z,83.45
2018-11-12T22:12:19.105Z,82.85
2018-11-12T22:14:47.372Z,82.29
2018-11-12T22:17:14.997Z,81.28
2018-11-12T22:19:42.913Z,80.97
2018-11-12T22:22:11.128Z,80.96
2018-11-12T22:24:38.837Z,83.41
2018-11-12T22:27:06.561Z,82.60
2018-11-12T22:29:34.612Z,81.71
2018-11-12T22:32:02.293Z,81.81
2018-11-12T22:34:30.013Z,82.12
2018-11-12T22:36:57.685Z,81.60
2018-11-12T22:39:25.404Z,84.30
2018-11-12T22:41:53.168Z,83.13
2018-11-12T22:44:21.313Z,82.27
2018-11-12T22:46:49.522Z,81.73
2018-11-12T22:49:17.180Z,81.90
2018-11-12T22:51:44.962Z,82.26
2018-11-12T22:54:12.610Z,81.28
2018-11-12T22:56:40.332Z,81.76
2018-11-12T22:59:08.087Z,82.00
2018-11-12T23:01:35.725Z,83.52
2018-11-12T23:04:04.251Z,82.42
2018-11-12T23:06:32.392Z,83.57
2018-11-12T23:09:00.133Z,82.97
2018-11-12T23:11:27.772Z,84.64
2018-11-12T23:13:55.493Z,82.92
2018-11-12T23:16:23.222Z,82.66
2018-11-12T23:18:50.985Z,81.91
2018-11-12T23:21:19.076Z,83.10
2018-11-12T23:23:46.713Z,82.14
2018-11-12T23:26:14.500Z,81.69
2018-11-12T23:28:42.150Z,82.52
2018-11-12T23:31:09.925Z,81.85
2018-11-12T23:33:37.568Z,81.14
2018-11-12T23:36:05.772Z,81.22
2018-11-12T23:38:33.576Z,80.38
2018-11-12T23:41:01.325Z,80.19
2018-11-12T23:43:29.026Z,80.87
2018-11-12T23:45:56.708Z,81.26
2018-11-12T23:48:24.324Z,82.44
2018-11-12T23:50:52.077Z,82.04
2018-11-12T23:53:19.781Z,83.46
2018-11-12T23:55:47.445Z,83.33
2018-11-12T23:58:15.601Z,82.49
